sensor_id;sensor_type;location;lat;lon;timestamp;pressure;altitude;pressure_sealevel;temperature;humidity
69173;BME280;56280;49.662;8.408;2023-02-28T00:00:13;101809.28;;;-2.49;71.87
69173;BME280;56280;49.662;8.408;2023-02-28T00:02:40;101794.56;;;-2.56;71.72
69173;BME280;56280;49.662;8.408;2023-02-28T00:05:08;101815.44;;;-2.58;71.96
69173;BME280;56280;49.662;8.408;2023-02-28T00:07:34;101812.84;;;-2.61;71.82
69173;BME280;56280;49.662;8.408;2023-02-28T00:10:00;101809.34;;;-2.63;72.76
69173;BME280;56280;49.662;8.408;2023-02-28T00:12:25;101816.22;;;-2.46;72.17
69173;BME280;56280;49.662;8.408;2023-02-28T00:14:51;101809.25;;;-2.43;72.00
69173;BME280;56280;49.662;8.408;2023-02-28T00:17:17;101800.69;;;-2.60;71.98
69173;BME280;56280;49.662;8.408;2023-02-28T00:19:47;101807.63;;;-2.62;73.18
69173;BME280;56280;49.662;8.408;2023-02-28T00:22:14;101815.47;;;-2.70;72.94
69173;BME280;56280;49.662;8.408;2023-02-28T00:24:39;101806.75;;;-2.66;72.74
69173;BME280;56280;49.662;8.408;2023-02-28T00:27:04;101805.84;;;-2.49;72.05
69173;BME280;56280;49.662;8.408;2023-02-28T00:29:30;101819.69;;;-2.47;72.32
69173;BME280;56280;49.662;8.408;2023-02-28T00:31:55;101797.09;;;-2.38;71.37
69173;BME280;56280;49.662;8.408;2023-02-28T00:34:20;101812.63;;;-2.25;71.03
69173;BME280;56280;49.662;8.408;2023-02-28T00:36:46;101793.75;;;-2.64;72.39
69173;BME280;56280;49.662;8.408;2023-02-28T00:39:14;101814.56;;;-2.66;73.20
69173;BME280;56280;49.662;8.408;2023-02-28T00:41:39;101806.81;;;-2.72;73.38
69173;BME280;56280;49.662;8.408;2023-02-28T00:44:04;101807.72;;;-2.81;73.97
69173;BME280;56280;49.662;8.408;2023-02-28T00:46:29;101796.47;;;-2.89;74.03
69173;BME280;56280;49.662;8.408;2023-02-28T00:48:55;101787.81;;;-2.83;73.56
69173;BME280;56280;49.662;8.408;2023-02-28T00:51:20;101798.16;;;-2.80;73.78
69173;BME280;56280;49.662;8.408;2023-02-28T00:53:45;101785.19;;;-2.82;73.77
69173;BME280;56280;49.662;8.408;2023-02-28T00:56:11;101791.16;;;-2.64;73.00
69173;BME280;56280;49.662;8.408;2023-02-28T00:58:36;101781.72;;;-2.88;74.06
69173;BME280;56280;49.662;8.408;2023-02-28T01:01:01;101787.81;;;-2.82;74.32
69173;BME280;56280;49.662;8.408;2023-02-28T01:03:27;101808.53;;;-2.71;74.11
69173;BME280;56280;49.662;8.408;2023-02-28T01:05:52;101793.00;;;-2.83;74.19
69173;BME280;56280;49.662;8.408;2023-02-28T01:08:21;101808.53;;;-2.68;74.11
69173;BME280;56280;49.662;8.408;2023-02-28T01:10:46;101792.03;;;-2.62;73.68
69173;BME280;56280;49.662;8.408;2023-02-28T01:13:12;101809.44;;;-2.73;74.84
69173;BME280;56280;49.662;8.408;2023-02-28T01:15:41;101773.06;;;-2.86;74.57
69173;BME280;56280;49.662;8.408;2023-02-28T01:18:08;101803.31;;;-2.65;74.95
69173;BME280;56280;49.662;8.408;2023-02-28T01:20:36;101795.50;;;-2.63;74.17
69173;BME280;56280;49.662;8.408;2023-02-28T01:23:02;101799.69;;;-2.39;73.78
69173;BME280;56280;49.662;8.408;2023-02-28T01:25:27;101783.31;;;-2.58;73.52
69173;BME280;56280;49.662;8.408;2023-02-28T01:27:52;101791.78;;;-2.22;72.86
69173;BME280;56280;49.662;8.408;2023-02-28T01:30:17;101782.44;;;-2.55;73.92
69173;BME280;56280;49.662;8.408;2023-02-28T01:32:43;101786.81;;;-2.58;74.34
69173;BME280;56280;49.662;8.408;2023-02-28T01:35:08;101773.81;;;-2.64;74.33
69173;BME280;56280;49.662;8.408;2023-02-28T01:37:33;101780.88;;;-2.90;75.02
69173;BME280;56280;49.662;8.408;2023-02-28T01:39:59;101747.06;;;-2.84;74.43
69173;BME280;56280;49.662;8.408;2023-02-28T01:42:24;101775.59;;;-2.72;74.93
69173;BME280;56280;49.662;8.408;2023-02-28T01:45:03;101779.94;;;-2.77;75.43
69173;BME280;56280;49.662;8.408;2023-02-28T01:47:36;101775.66;;;-2.87;75.65
69173;BME280;56280;49.662;8.408;2023-02-28T01:50:06;101795.66;;;-2.96;76.41
69173;BME280;56280;49.662;8.408;2023-02-28T01:52:33;101793.91;;;-2.98;76.40
69173;BME280;56280;49.662;8.408;2023-02-28T01:55:00;101789.53;;;-2.91;76.52
69173;BME280;56280;49.662;8.408;2023-02-28T01:57:32;101775.69;;;-2.95;76.09
69173;BME280;56280;49.662;8.408;2023-02-28T02:00:06;101763.66;;;-3.16;76.46
69173;BME280;56280;49.662;8.408;2023-02-28T02:02:33;101778.31;;;-3.00;76.44
69173;BME280;56280;49.662;8.408;2023-02-28T02:05:15;101740.34;;;-3.33;77.22
69173;BME280;56280;49.662;8.408;2023-02-28T02:07:43;101779.22;;;-3.10;76.50
69173;BME280;56280;49.662;8.408;2023-02-28T02:10:16;101768.00;;;-3.14;76.63
69173;BME280;56280;49.662;8.408;2023-02-28T02:12:49;101779.25;;;-3.13;76.96
69173;BME280;56280;49.662;8.408;2023-02-28T02:16:02;101770.53;;;-3.04;77.04
69173;BME280;56280;49.662;8.408;2023-02-28T02:21:21;101762.78;;;-3.09;76.67
69173;BME280;56280;49.662;8.408;2023-02-28T02:27:03;101765.41;;;-3.20;77.44
69173;BME280;56280;49.662;8.408;2023-02-28T02:37:50;101722.09;;;-3.27;77.47
69173;BME280;56280;49.662;8.408;2023-02-28T02:40:20;101722.06;;;-3.16;77.29
69173;BME280;56280;49.662;8.408;2023-02-28T02:42:56;101759.25;;;-2.96;77.17
69173;BME280;56280;49.662;8.408;2023-02-28T02:45:32;101759.25;;;-3.02;77.58
69173;BME280;56280;49.662;8.408;2023-02-28T02:48:02;101761.00;;;-3.02;77.48
69173;BME280;56280;49.662;8.408;2023-02-28T02:50:38;101742.00;;;-3.14;77.35
69173;BME280;56280;49.662;8.408;2023-02-28T02:53:06;101758.41;;;-2.99;77.14
69173;BME280;56280;49.662;8.408;2023-02-28T02:55:38;101733.38;;;-3.30;77.68
69173;BME280;56280;49.662;8.408;2023-02-28T02:58:08;101750.75;;;-3.35;78.02
69173;BME280;56280;49.662;8.408;2023-02-28T03:00:39;101737.75;;;-3.36;77.52
69173;BME280;56280;49.662;8.408;2023-02-28T03:03:07;101738.59;;;-3.31;77.67
69173;BME280;56280;49.662;8.408;2023-02-28T03:05:41;101735.09;;;-3.28;77.65
69173;BME280;56280;49.662;8.408;2023-02-28T03:08:07;101744.63;;;-3.26;77.79
69173;BME280;56280;49.662;8.408;2023-02-28T03:10:59;101707.41;;;-3.39;77.66
69173;BME280;56280;49.662;8.408;2023-02-28T03:19:19;101759.19;;;-2.82;77.11
69173;BME280;56280;49.662;8.408;2023-02-28T03:24:54;101757.47;;;-2.86;77.13
69173;BME280;56280;49.662;8.408;2023-02-28T03:30:01;101739.41;;;-3.21;77.74
69173;BME280;56280;49.662;8.408;2023-02-28T03:32:48;101714.34;;;-3.35;78.00
69173;BME280;56280;49.662;8.408;2023-02-28T03:35:19;101736.00;;;-3.39;78.95
69173;BME280;56280;49.662;8.408;2023-02-28T03:37:48;101741.19;;;-3.37;79.13
69173;BME280;56280;49.662;8.408;2023-02-28T03:40:17;101751.59;;;-3.30;78.65
69173;BME280;56280;49.662;8.408;2023-02-28T03:42:48;101745.50;;;-3.30;79.08
69173;BME280;56280;49.662;8.408;2023-02-28T03:45:21;101705.75;;;-3.60;79.45
69173;BME280;56280;49.662;8.408;2023-02-28T03:48:06;101746.38;;;-3.28;79.24
69173;BME280;56280;49.662;8.408;2023-02-28T03:50:43;101756.75;;;-3.25;79.52
69173;BME280;56280;49.662;8.408;2023-02-28T03:55:50;101764.56;;;-3.31;79.76
69173;BME280;56280;49.662;8.408;2023-02-28T03:58:33;101762.81;;;-3.23;79.36
69173;BME280;56280;49.662;8.408;2023-02-28T04:01:38;101767.16;;;-3.25;79.31
69173;BME280;56280;49.662;8.408;2023-02-28T04:04:07;101742.06;;;-3.35;79.01
69173;BME280;56280;49.662;8.408;2023-02-28T04:06:33;101771.41;;;-3.02;78.11
69173;BME280;56280;49.662;8.408;2023-02-28T04:08:58;101755.84;;;-3.13;78.31
69173;BME280;56280;49.662;8.408;2023-02-28T04:11:34;101764.50;;;-3.14;78.67
69173;BME280;56280;49.662;8.408;2023-02-28T04:14:01;101757.63;;;-3.24;78.72
69173;BME280;56280;49.662;8.408;2023-02-28T04:16:27;101758.53;;;-3.35;79.53
69173;BME280;56280;49.662;8.408;2023-02-28T04:18:53;101734.31;;;-3.43;79.45
69173;BME280;56280;49.662;8.408;2023-02-28T04:21:18;101762.84;;;-3.34;80.07
69173;BME280;56280;49.662;8.408;2023-02-28T04:23:47;101750.75;;;-3.36;79.81
69173;BME280;56280;49.662;8.408;2023-02-28T04:26:12;101757.63;;;-3.34;79.98
69173;BME280;56280;49.662;8.408;2023-02-28T04:28:38;101756.75;;;-3.25;79.72
69173;BME280;56280;49.662;8.408;2023-02-28T04:31:04;101729.97;;;-3.47;80.33
69173;BME280;56280;49.662;8.408;2023-02-28T04:33:31;101761.13;;;-3.35;80.33
69173;BME280;56280;49.662;8.408;2023-02-28T04:36:04;101762.00;;;-3.36;80.04
69173;BME280;56280;49.662;8.408;2023-02-28T04:38:32;101743.81;;;-3.37;79.61
69173;BME280;56280;49.662;8.408;2023-02-28T04:40:58;101741.22;;;-3.40;79.51
69173;BME280;56280;49.662;8.408;2023-02-28T04:43:28;101726.53;;;-3.47;79.50
69173;BME280;56280;49.662;8.408;2023-02-28T04:45:57;101761.09;;;-3.28;80.07
69173;BME280;56280;49.662;8.408;2023-02-28T04:48:31;101732.59;;;-3.53;79.80
69173;BME280;56280;49.662;8.408;2023-02-28T04:51:04;101763.72;;;-3.35;80.20
69173;BME280;56280;49.662;8.408;2023-02-28T04:53:31;101739.53;;;-3.55;80.30
69173;BME280;56280;49.662;8.408;2023-02-28T04:55:57;101766.34;;;-3.38;80.69
69173;BME280;56280;49.662;8.408;2023-02-28T04:58:23;101758.56;;;-3.47;80.60
69173;BME280;56280;49.662;8.408;2023-02-28T05:00:49;101747.31;;;-3.61;81.14
69173;BME280;56280;49.662;8.408;2023-02-28T05:03:14;101739.53;;;-3.69;81.64
69173;BME280;56280;49.662;8.408;2023-02-28T05:05:40;101739.59;;;-3.80;82.10
69173;BME280;56280;49.662;8.408;2023-02-28T05:08:05;101754.28;;;-3.63;82.02
69173;BME280;56280;49.662;8.408;2023-02-28T05:10:31;101762.91;;;-3.54;82.03
69173;BME280;56280;49.662;8.408;2023-02-28T05:12:57;101749.06;;;-3.67;82.32
69173;BME280;56280;49.662;8.408;2023-02-28T05:15:23;101771.56;;;-3.55;82.20
69173;BME280;56280;49.662;8.408;2023-02-28T05:17:49;101771.56;;;-3.61;82.75
69173;BME280;56280;49.662;8.408;2023-02-28T05:20:14;101756.88;;;-3.71;83.16
69173;BME280;56280;49.662;8.408;2023-02-28T05:22:40;101751.69;;;-3.73;83.22
69173;BME280;56280;49.662;8.408;2023-02-28T05:25:06;101745.63;;;-3.79;83.29
69173;BME280;56280;49.662;8.408;2023-02-28T05:27:32;101769.00;;;-3.76;83.92
69173;BME280;56280;49.662;8.408;2023-02-28T05:29:57;101762.97;;;-3.81;83.81
69173;BME280;56280;49.662;8.408;2023-02-28T05:32:24;101752.56;;;-3.91;84.18
69173;BME280;56280;49.662;8.408;2023-02-28T05:34:49;101778.50;;;-3.77;84.39
69173;BME280;56280;49.662;8.408;2023-02-28T05:37:15;101779.41;;;-3.82;84.76
69173;BME280;56280;49.662;8.408;2023-02-28T05:39:41;101763.81;;;-3.81;83.99
69173;BME280;56280;49.662;8.408;2023-02-28T05:42:07;101780.25;;;-3.77;84.35
69173;BME280;56280;49.662;8.408;2023-02-28T05:44:32;101779.41;;;-3.78;84.37
69173;BME280;56280;49.662;8.408;2023-02-28T05:46:57;101772.47;;;-3.88;84.38
69173;BME280;56280;49.662;8.408;2023-02-28T05:49:23;101762.06;;;-3.70;83.09
69173;BME280;56280;49.662;8.408;2023-02-28T05:51:48;101791.47;;;-3.52;83.00
69173;BME280;56280;49.662;8.408;2023-02-28T05:54:13;101788.88;;;-3.49;82.58
69173;BME280;56280;49.662;8.408;2023-02-28T05:56:38;101761.13;;;-3.36;81.42
69173;BME280;56280;49.662;8.408;2023-02-28T05:59:06;101764.50;;;-3.11;80.00
69173;BME280;56280;49.662;8.408;2023-02-28T06:01:42;101785.34;;;-3.19;80.42
69173;BME280;56280;49.662;8.408;2023-02-28T06:04:13;101768.03;;;-3.29;80.22
69173;BME280;56280;49.662;8.408;2023-02-28T06:06:40;101770.66;;;-3.40;80.50
69173;BME280;56280;49.662;8.408;2023-02-28T06:09:05;101776.66;;;-3.15;80.12
69173;BME280;56280;49.662;8.408;2023-02-28T06:11:30;101772.34;;;-3.22;80.15
69173;BME280;56280;49.662;8.408;2023-02-28T06:13:57;101794.69;;;-2.73;79.32
69173;BME280;56280;49.662;8.408;2023-02-28T06:16:25;101792.97;;;-2.80;79.06
69173;BME280;56280;49.662;8.408;2023-02-28T06:18:51;101777.41;;;-2.83;78.25
69173;BME280;56280;49.662;8.408;2023-02-28T06:21:17;101784.34;;;-2.91;79.50
69173;BME280;56280;49.662;8.408;2023-02-28T06:23:43;101773.09;;;-2.92;78.81
69173;BME280;56280;49.662;8.408;2023-02-28T06:26:09;101778.28;;;-2.90;79.21
69173;BME280;56280;49.662;8.408;2023-02-28T06:28:34;101775.72;;;-3.04;79.50
69173;BME280;56280;49.662;8.408;2023-02-28T06:31:05;101799.94;;;-2.87;79.26
69173;BME280;56280;49.662;8.408;2023-02-28T06:33:31;101769.59;;;-2.83;78.67
69173;BME280;56280;49.662;8.408;2023-02-28T06:35:56;101772.03;;;-2.52;77.66
69173;BME280;56280;49.662;8.408;2023-02-28T06:38:22;101771.25;;;-2.73;77.53
69173;BME280;56280;49.662;8.408;2023-02-28T06:40:57;101789.41;;;-2.58;77.08
69173;BME280;56280;49.662;8.408;2023-02-28T06:43:23;101793.66;;;-2.46;77.39
69173;BME280;56280;49.662;8.408;2023-02-28T06:45:49;101788.50;;;-2.53;76.79
69173;BME280;56280;49.662;8.408;2023-02-28T06:48:15;101811.72;;;-2.23;76.11
69173;BME280;56280;49.662;8.408;2023-02-28T06:50:40;101804.84;;;-2.28;76.62
69173;BME280;56280;49.662;8.408;2023-02-28T06:53:05;101784.16;;;-2.56;76.37
69173;BME280;56280;49.662;8.408;2023-02-28T06:55:33;101820.50;;;-2.38;76.70
69173;BME280;56280;49.662;8.408;2023-02-28T06:57:59;101816.94;;;-2.26;75.69
69173;BME280;56280;49.662;8.408;2023-02-28T07:00:24;101801.47;;;-2.44;76.22
69173;BME280;56280;49.662;8.408;2023-02-28T07:02:50;101821.16;;;-2.06;76.46
69173;BME280;56280;49.662;8.408;2023-02-28T07:05:15;101819.41;;;-2.03;75.21
69173;BME280;56280;49.662;8.408;2023-02-28T07:07:40;101800.19;;;-1.88;74.97
69173;BME280;56280;49.662;8.408;2023-02-28T07:10:12;101821.09;;;-1.95;74.24
69173;BME280;56280;49.662;8.408;2023-02-28T07:12:39;101816.97;;;-2.30;75.37
69173;BME280;56280;49.662;8.408;2023-02-28T07:15:05;101834.34;;;-2.29;76.00
69173;BME280;56280;49.662;8.408;2023-02-28T07:17:30;101811.84;;;-2.40;75.26
69173;BME280;56280;49.662;8.408;2023-02-28T07:19:56;101844.66;;;-2.11;75.55
69173;BME280;56280;49.662;8.408;2023-02-28T07:22:21;101824.72;;;-2.18;75.44
69173;BME280;56280;49.662;8.408;2023-02-28T07:24:47;101835.13;;;-2.18;75.46
69173;BME280;56280;49.662;8.408;2023-02-28T07:27:12;101845.47;;;-2.06;75.07
69173;BME280;56280;49.662;8.408;2023-02-28T07:29:51;101841.78;;;-1.74;74.49
69173;BME280;56280;49.662;8.408;2023-02-28T07:32:16;101832.28;;;-1.83;75.34
69173;BME280;56280;49.662;8.408;2023-02-28T07:34:42;101821.16;;;-2.05;75.68
69173;BME280;56280;49.662;8.408;2023-02-28T07:37:07;101839.28;;;-1.91;75.35
69173;BME280;56280;49.662;8.408;2023-02-28T07:39:32;101836.69;;;-1.91;74.98
69173;BME280;56280;49.662;8.408;2023-02-28T07:41:57;101822.78;;;-1.88;74.43
69173;BME280;56280;49.662;8.408;2023-02-28T07:44:25;101804.47;;;-1.84;74.67
69173;BME280;56280;49.662;8.408;2023-02-28T07:46:50;101805.06;;;-1.51;73.63
69173;BME280;56280;49.662;8.408;2023-02-28T07:49:15;101837.84;;;-1.26;73.76
69173;BME280;56280;49.662;8.408;2023-02-28T07:51:41;101827.72;;;-1.57;74.69
69173;BME280;56280;49.662;8.408;2023-02-28T07:54:06;101838.06;;;-1.48;74.48
69173;BME280;56280;49.662;8.408;2023-02-28T07:56:32;101832.00;;;-1.50;73.79
69173;BME280;56280;49.662;8.408;2023-02-28T07:58:57;101818.84;;;-1.38;74.07
69173;BME280;56280;49.662;8.408;2023-02-28T08:01:22;101816.31;;;-1.45;73.18
69173;BME280;56280;49.662;8.408;2023-02-28T08:03:47;101821.13;;;-1.08;72.57
69173;BME280;56280;49.662;8.408;2023-02-28T08:06:19;101847.31;;;-0.42;71.53
69173;BME280;56280;49.662;8.408;2023-02-28T08:08:45;101860.66;;;-0.68;71.26
69173;BME280;56280;49.662;8.408;2023-02-28T08:11:11;101821.75;;;-0.85;71.57
69173;BME280;56280;49.662;8.408;2023-02-28T08:13:36;101845.97;;;-0.75;69.69
69173;BME280;56280;49.662;8.408;2023-02-28T08:16:02;101825.38;;;-0.31;69.92
69173;BME280;56280;49.662;8.408;2023-02-28T08:18:28;101856.56;;;-0.19;67.91
69173;BME280;56280;49.662;8.408;2023-02-28T08:20:53;101845.22;;;-0.18;67.11
69173;BME280;56280;49.662;8.408;2023-02-28T08:23:18;101839.03;;;-0.11;66.75
69173;BME280;56280;49.662;8.408;2023-02-28T08:25:43;101820.03;;;-0.22;67.17
69173;BME280;56280;49.662;8.408;2023-02-28T08:28:09;101851.84;;;0.05;65.50
69173;BME280;56280;49.662;8.408;2023-02-28T08:30:34;101820.19;;;0.23;66.28
69173;BME280;56280;49.662;8.408;2023-02-28T08:32:59;101811.91;;;0.48;64.87
69173;BME280;56280;49.662;8.408;2023-02-28T08:35:26;101834.13;;;0.73;63.74
69173;BME280;56280;49.662;8.408;2023-02-28T08:37:52;101815.63;;;0.84;62.35
69173;BME280;56280;49.662;8.408;2023-02-28T08:40:17;101831.25;;;0.89;62.75
69173;BME280;56280;49.662;8.408;2023-02-28T08:42:45;101831.78;;;1.06;62.68
69173;BME280;56280;49.662;8.408;2023-02-28T08:45:11;101831.25;;;1.31;60.98
69173;BME280;56280;49.662;8.408;2023-02-28T08:47:37;101847.44;;;1.08;61.15
69173;BME280;56280;49.662;8.408;2023-02-28T08:50:02;101856.00;;;0.71;61.57
69173;BME280;56280;49.662;8.408;2023-02-28T08:52:28;101865.06;;;0.98;61.66
69173;BME280;56280;49.662;8.408;2023-02-28T08:54:53;101840.78;;;0.90;61.09
69173;BME280;56280;49.662;8.408;2023-02-28T08:57:19;101846.72;;;0.98;60.77
69173;BME280;56280;49.662;8.408;2023-02-28T08:59:52;101819.81;;;0.93;59.59
69173;BME280;56280;49.662;8.408;2023-02-28T09:02:17;101827.25;;;1.15;59.71
69173;BME280;56280;49.662;8.408;2023-02-28T09:04:43;101808.06;;;1.13;58.42
69173;BME280;56280;49.662;8.408;2023-02-28T09:07:12;101827.22;;;1.16;58.81
69173;BME280;56280;49.662;8.408;2023-02-28T09:09:37;101833.81;;;1.75;57.88
69173;BME280;56280;49.662;8.408;2023-02-28T09:12:03;101821.56;;;1.75;56.12
69173;BME280;56280;49.662;8.408;2023-02-28T09:14:28;101819.19;;;1.64;57.24
69173;BME280;56280;49.662;8.408;2023-02-28T09:16:53;101792.72;;;1.38;56.96
69173;BME280;56280;49.662;8.408;2023-02-28T09:19:21;101828.47;;;1.79;56.84
69173;BME280;56280;49.662;8.408;2023-02-28T09:21:47;101840.94;;;1.68;56.95
69173;BME280;56280;49.662;8.408;2023-02-28T09:24:12;101835.09;;;1.57;56.85
69173;BME280;56280;49.662;8.408;2023-02-28T09:26:40;101823.94;;;1.86;56.74
69173;BME280;56280;49.662;8.408;2023-02-28T09:29:05;101775.72;;;1.56;56.74
69173;BME280;56280;49.662;8.408;2023-02-28T09:31:32;101826.75;;;1.77;55.24
69173;BME280;56280;49.662;8.408;2023-02-28T09:33:58;101793.84;;;1.26;57.21
69173;BME280;56280;49.662;8.408;2023-02-28T09:36:27;101842.91;;;1.58;56.24
69173;BME280;56280;49.662;8.408;2023-02-28T09:38:53;101819.34;;;1.96;55.99
69173;BME280;56280;49.662;8.408;2023-02-28T09:41:23;101841.63;;;2.50;56.13
69173;BME280;56280;49.662;8.408;2023-02-28T09:43:56;101832.16;;;2.08;54.28
69173;BME280;56280;49.662;8.408;2023-02-28T09:46:39;101831.97;;;1.78;55.76
69173;BME280;56280;49.662;8.408;2023-02-28T09:49:17;101832.81;;;2.18;54.89
69173;BME280;56280;49.662;8.408;2023-02-28T09:52:03;101825.94;;;2.48;55.32
69173;BME280;56280;49.662;8.408;2023-02-28T09:54:31;101792.19;;;2.99;55.33
69173;BME280;56280;49.662;8.408;2023-02-28T10:05:19;101811.75;;;2.88;52.63
69173;BME280;56280;49.662;8.408;2023-02-28T10:07:57;101802.50;;;3.06;51.65
69173;BME280;56280;49.662;8.408;2023-02-28T10:10:29;101838.50;;;2.68;53.59
69173;BME280;56280;49.662;8.408;2023-02-28T10:12:58;101818.53;;;2.96;53.85
69173;BME280;56280;49.662;8.408;2023-02-28T10:15:25;101816.63;;;2.69;52.29
69173;BME280;56280;49.662;8.408;2023-02-28T10:17:59;101786.94;;;2.99;51.30
69173;BME280;56280;49.662;8.408;2023-02-28T10:20:26;101789.91;;;2.86;48.63
69173;BME280;56280;49.662;8.408;2023-02-28T10:23:26;101836.06;;;3.56;49.32
69173;BME280;56280;49.662;8.408;2023-02-28T10:26:09;101815.44;;;3.42;48.83
69173;BME280;56280;49.662;8.408;2023-02-28T10:28:36;101795.47;;;3.37;48.17
69173;BME280;56280;49.662;8.408;2023-02-28T10:31:01;101815.97;;;3.54;48.56
69173;BME280;56280;49.662;8.408;2023-02-28T10:33:32;101817.25;;;3.69;47.75
69173;BME280;56280;49.662;8.408;2023-02-28T10:35:59;101816.59;;;3.90;47.29
69173;BME280;56280;49.662;8.408;2023-02-28T10:38:33;101790.38;;;3.60;47.61
69173;BME280;56280;49.662;8.408;2023-02-28T10:43:34;101827.25;;;3.86;47.01
69173;BME280;56280;49.662;8.408;2023-02-28T10:46:11;101826.88;;;3.70;46.11
69173;BME280;56280;49.662;8.408;2023-02-28T10:48:42;101800.06;;;3.30;46.40
69173;BME280;56280;49.662;8.408;2023-02-28T10:51:14;101800.06;;;3.87;47.21
69173;BME280;56280;49.662;8.408;2023-02-28T11:03:42;101768.34;;;3.36;46.00
69173;BME280;56280;49.662;8.408;2023-02-28T11:06:15;101810.75;;;3.52;46.03
69173;BME280;56280;49.662;8.408;2023-02-28T11:08:46;101791.63;;;3.77;46.80
69173;BME280;56280;49.662;8.408;2023-02-28T11:11:12;101780.50;;;3.95;46.68
69173;BME280;56280;49.662;8.408;2023-02-28T11:13:38;101784.53;;;3.79;46.12
69173;BME280;56280;49.662;8.408;2023-02-28T11:16:06;101787.59;;;3.65;46.39
69173;BME280;56280;49.662;8.408;2023-02-28T11:18:48;101802.38;;;3.96;46.59
69173;BME280;56280;49.662;8.408;2023-02-28T11:21:34;101795.38;;;3.96;45.38
69173;BME280;56280;49.662;8.408;2023-02-28T11:24:15;101799.41;;;4.07;46.45
69173;BME280;56280;49.662;8.408;2023-02-28T11:26:47;101744.91;;;3.85;46.34
69173;BME280;56280;49.662;8.408;2023-02-28T11:34:38;101772.41;;;4.01;46.41
69173;BME280;56280;49.662;8.408;2023-02-28T11:37:08;101779.16;;;4.35;45.77
69173;BME280;56280;49.662;8.408;2023-02-28T11:39:36;101759.81;;;4.11;45.39
69173;BME280;56280;49.662;8.408;2023-02-28T11:53:10;101744.69;;;4.18;45.38
69173;BME280;56280;49.662;8.408;2023-02-28T12:06:55;101763.50;;;4.32;45.38
69173;BME280;56280;49.662;8.408;2023-02-28T12:09:39;101768.69;;;4.34;44.77
69173;BME280;56280;49.662;8.408;2023-02-28T12:12:34;101765.63;;;4.21;45.78
69173;BME280;56280;49.662;8.408;2023-02-28T12:18:13;101759.97;;;4.82;44.14
69173;BME280;56280;49.662;8.408;2023-02-28T12:20:52;101749.06;;;4.93;44.95
69173;BME280;56280;49.662;8.408;2023-02-28T12:23:40;101752.28;;;4.76;44.95
69173;BME280;56280;49.662;8.408;2023-02-28T12:26:39;101777.09;;;4.70;44.06
69173;BME280;56280;49.662;8.408;2023-02-28T12:31:44;101759.75;;;4.40;45.07
69173;BME280;56280;49.662;8.408;2023-02-28T12:34:17;101762.09;;;4.22;45.74
69173;BME280;56280;49.662;8.408;2023-02-28T12:36:46;101768.13;;;4.51;45.24
69173;BME280;56280;49.662;8.408;2023-02-28T12:39:36;101770.13;;;4.43;45.44
69173;BME280;56280;49.662;8.408;2023-02-28T12:42:13;101752.09;;;4.57;45.73
69173;BME280;56280;49.662;8.408;2023-02-28T12:44:46;101745.34;;;4.50;46.08
69173;BME280;56280;49.662;8.408;2023-02-28T12:47:16;101754.84;;;4.54;44.93
69173;BME280;56280;49.662;8.408;2023-02-28T12:49:50;101728.13;;;4.65;44.19
69173;BME280;56280;49.662;8.408;2023-02-28T12:52:28;101733.13;;;4.72;44.81
69173;BME280;56280;49.662;8.408;2023-02-28T12:55:02;101736.91;;;4.89;44.18
69173;BME280;56280;49.662;8.408;2023-02-28T12:57:49;101741.97;;;4.70;45.46
69173;BME280;56280;49.662;8.408;2023-02-28T13:00:21;101722.94;;;4.87;44.07
69173;BME280;56280;49.662;8.408;2023-02-28T13:03:10;101749.78;;;4.73;44.12
69173;BME280;56280;49.662;8.408;2023-02-28T13:06:26;101739.75;;;4.59;43.69
69173;BME280;56280;49.662;8.408;2023-02-28T13:10:59;101731.84;;;4.09;45.22
69173;BME280;56280;49.662;8.408;2023-02-28T13:13:26;101740.78;;;4.55;45.46
69173;BME280;56280;49.662;8.408;2023-02-28T13:16:10;101740.41;;;4.89;43.54
69173;BME280;56280;49.662;8.408;2023-02-28T13:18:37;101758.44;;;4.26;45.69
69173;BME280;56280;49.662;8.408;2023-02-28T13:21:06;101743.19;;;4.61;45.89
69173;BME280;56280;49.662;8.408;2023-02-28T13:26:11;101713.16;;;4.90;43.56
69173;BME280;56280;49.662;8.408;2023-02-28T13:29:00;101750.47;;;5.02;43.87
69173;BME280;56280;49.662;8.408;2023-02-28T13:31:26;101755.41;;;4.87;44.00
69173;BME280;56280;49.662;8.408;2023-02-28T13:36:26;101755.81;;;4.26;43.83
69173;BME280;56280;49.662;8.408;2023-02-28T13:38:53;101735.50;;;4.55;44.69
69173;BME280;56280;49.662;8.408;2023-02-28T13:44:20;101742.66;;;4.77;44.85
69173;BME280;56280;49.662;8.408;2023-02-28T13:57:22;101748.59;;;4.31;45.03
69173;BME280;56280;49.662;8.408;2023-02-28T14:03:05;101733.31;;;4.43;45.60
69173;BME280;56280;49.662;8.408;2023-02-28T14:05:34;101759.50;;;4.46;45.20
69173;BME280;56280;49.662;8.408;2023-02-28T14:08:07;101745.44;;;4.47;45.46
69173;BME280;56280;49.662;8.408;2023-02-28T14:10:45;101729.28;;;4.57;44.54
69173;BME280;56280;49.662;8.408;2023-02-28T14:13:43;101780.66;;;4.93;45.47
69173;BME280;56280;49.662;8.408;2023-02-28T14:16:23;101739.75;;;4.83;44.71
69173;BME280;56280;49.662;8.408;2023-02-28T14:19:00;101732.97;;;5.01;45.05
69173;BME280;56280;49.662;8.408;2023-02-28T14:21:34;101736.78;;;4.92;44.44
69173;BME280;56280;49.662;8.408;2023-02-28T14:26:32;101744.31;;;5.03;43.25
69173;BME280;56280;49.662;8.408;2023-02-28T14:29:33;101728.44;;;4.81;43.79
69173;BME280;56280;49.662;8.408;2023-02-28T14:34:59;101731.69;;;4.87;43.89
69173;BME280;56280;49.662;8.408;2023-02-28T14:37:33;101721.63;;;4.99;43.73
69173;BME280;56280;49.662;8.408;2023-02-28T14:40:02;101740.63;;;5.07;42.96
69173;BME280;56280;49.662;8.408;2023-02-28T14:42:36;101734.28;;;5.13;43.45
69173;BME280;56280;49.662;8.408;2023-02-28T14:45:04;101725.47;;;4.90;43.79
69173;BME280;56280;49.662;8.408;2023-02-28T14:47:33;101718.63;;;5.08;42.53
69173;BME280;56280;49.662;8.408;2023-02-28T14:50:02;101715.84;;;5.13;42.54
69173;BME280;56280;49.662;8.408;2023-02-28T14:52:30;101715.09;;;5.09;42.72
69173;BME280;56280;49.662;8.408;2023-02-28T14:55:03;101704.63;;;5.07;43.68
69173;BME280;56280;49.662;8.408;2023-02-28T14:57:34;101712.28;;;5.14;43.29
69173;BME280;56280;49.662;8.408;2023-02-28T15:02:49;101700.66;;;4.96;43.07